Eloy, AZ

3:05 PM MST on September 19, 2014 (GMT -0700)
Phoenix-Mesa Gateway Airport | Change Station
CLOSE
Current Station
Airport
Location: Phoenix-Mesa Gateway Airport,
Elevation: 1381 ft
Nearby Weather Stations

Elev 1381 ft 33.31 °N, 111.66 °W | Updated 18 minutes ago

Clear
Clear
95 °F
Feels Like 98 °F
N
7
Wind Variable Wind from NNW

Today
High -- | Low -- °F
--% Chance of Precip.
Yesterday
High -- | Low -- °F
Precip. -- in
6:12 AM 6:26 PM
Waning Crescent, 16% visible
Pressure 29.80 in
Visibility 35.0 miles
Clouds Few 6000 ft
Scattered Clouds 7000 ft
Heat Index 98 °F
Dew Point 66 °F
Humidity 39%
Rainfall 0.00 in
Snow Depth 0 in , 0 in
UV 5 out of 12
Pollen 6.30 out of 12
Air Quality Not available.
Flu Activity Not available.
METAR KIWA 192147Z 34006KT 35SM FEW060 SCT070 35/19 A2980

More Conditions Fewer Conditions

Pressure 29.80 in
Visibility 35.0 miles
Clouds Few 6000 ft
Scattered Clouds 7000 ft
Heat Index 98 °F
Dew Point 66 °F
Humidity 39%
Rainfall 0.00 in
Snow Depth 0 in , 0 in
UV 5 out of 12
Pollen 6.30 out of 12
Air Quality Not available.
Flu Activity Not available.
METAR KIWA 192147Z 34006KT 35SM FEW060 SCT070 35/19 A2980

More Conditions Fewer Conditions

10-Day Weather Forecast

Almanac

Astronomy

Sep. 19, 2014 Rise Set
Actual Time 6:12 AM MST 6:26 PM MST
Civil Twilight 5:47 AM MST 6:51 PM MST
Nautical Twilight 5:19 AM MST 7:20 PM MST
Astronomical Twilight 4:50 AM MST 7:49 PM MST
Moon 2:11 AM MST 3:48 PM MST
Length of Visible Light 13h 03m
Length of Day
12h 14m
Tomorrow will be 2m 0s shorter.
Waning Crescent, 16% of the Moon is Illuminated
Today
Waning Crescent
Sep 24
New
Oct 1
First Quarter
Oct 8
Full
Oct 15
Last Quarter

Today's Extremes

State Highs State Lows

Community

WunderPhotos

Upload Photos

1,754,718 photos uploaded!

WunderBlogs® & News

Nearby

Snow Depth

Station Depth Elevation
Snowslide Canyon 0 in 9730 ft
Workman Creek 1 in 6900 ft
Maverick Fork 0 in 9200 ft
Beaver Head 0 in 7990 ft

Earthquake Activity

City Distance Mag. Time & Date
No recent earthquake activity has been reported nearby.
Minimum magnitude displayed is 2.5.

Coastal Water Temperatures

Place Temperature
No Stations Reporting

Nearby Weather Stations